createdAt,value
2023-05-20T00:00:18.601Z,0.00
2023-05-20T00:01:17.591Z,0.00
2023-05-20T00:02:17.666Z,0.00
2023-05-20T00:03:17.654Z,0.00
2023-05-20T00:04:17.713Z,0.00
2023-05-20T00:05:17.610Z,0.00
2023-05-20T00:06:17.542Z,0.00
2023-05-20T00:07:17.528Z,0.00
2023-05-20T00:08:17.548Z,0.00
2023-05-20T00:09:17.499Z,0.00
2023-05-20T00:10:17.518Z,0.00
2023-05-20T00:11:17.484Z,0.00
2023-05-20T00:12:17.552Z,0.00
2023-05-20T00:13:17.500Z,0.00
2023-05-20T00:14:17.504Z,0.00
2023-05-20T00:15:17.461Z,0.00
2023-05-20T00:16:18.258Z,0.00
2023-05-20T00:17:17.464Z,0.00
2023-05-20T00:18:17.503Z,0.00
2023-05-20T00:19:17.959Z,0.00
2023-05-20T00:20:17.567Z,0.00
2023-05-20T00:21:17.473Z,0.00
2023-05-20T00:22:17.503Z,0.00
2023-05-20T00:23:17.404Z,0.00
2023-05-20T00:24:17.378Z,0.00
2023-05-20T00:25:17.433Z,0.00
2023-05-20T00:26:17.377Z,0.00
2023-05-20T00:27:17.367Z,0.00
2023-05-20T00:28:17.528Z,0.00
2023-05-20T00:29:17.364Z,0.00
2023-05-20T00:30:17.394Z,0.00
2023-05-20T00:31:17.347Z,0.00
2023-05-20T00:32:17.393Z,0.00
2023-05-20T00:33:17.331Z,0.00
2023-05-20T00:34:17.317Z,0.00
2023-05-20T00:35:17.292Z,0.00
2023-05-20T00:36:17.317Z,0.00
2023-05-20T00:37:17.270Z,0.00
2023-05-20T00:38:17.283Z,0.00
2023-05-20T00:39:17.286Z,0.00
2023-05-20T00:40:17.243Z,0.00
2023-05-20T00:41:17.251Z,0.00
2023-05-20T00:42:17.240Z,0.00
2023-05-20T00:43:17.238Z,0.00
2023-05-20T00:44:17.211Z,0.00
2023-05-20T00:45:17.230Z,0.00
2023-05-20T00:46:17.320Z,0.00
2023-05-20T00:47:17.163Z,0.00
2023-05-20T00:48:17.223Z,0.00
2023-05-20T00:49:17.226Z,0.00
2023-05-20T00:50:17.195Z,0.00
2023-05-20T00:51:17.157Z,0.00
2023-05-20T00:52:17.161Z,0.00
2023-05-20T00:53:17.138Z,0.00
2023-05-20T00:54:17.162Z,0.00
2023-05-20T00:55:17.134Z,0.00
2023-05-20T00:56:17.152Z,0.00
2023-05-20T00:57:17.128Z,0.00
2023-05-20T00:58:17.112Z,0.00
2023-05-20T00:59:17.099Z,0.00
2023-05-20T01:00:17.097Z,0.00
2023-05-20T01:01:17.096Z,0.00
2023-05-20T01:02:17.112Z,0.00
2023-05-20T01:03:17.133Z,0.00
2023-05-20T01:04:18.065Z,0.00
2023-05-20T01:05:18.116Z,0.00
2023-05-20T01:06:17.020Z,0.00
2023-05-20T01:07:17.055Z,0.00
2023-05-20T01:08:17.240Z,0.00
2023-05-20T01:09:17.011Z,0.00
2023-05-20T01:10:17.028Z,0.00
2023-05-20T01:11:17.031Z,0.00
2023-05-20T01:12:17.235Z,0.00
2023-05-20T01:13:17.038Z,0.00
2023-05-20T01:14:17.066Z,0.00
2023-05-20T01:15:16.977Z,0.00
2023-05-20T01:16:17.012Z,0.00
2023-05-20T01:17:16.954Z,0.00
2023-05-20T01:18:16.952Z,0.00
2023-05-20T01:19:16.982Z,0.00
2023-05-20T01:20:16.954Z,0.00
2023-05-20T01:21:16.933Z,0.00
2023-05-20T01:22:16.934Z,0.00
2023-05-20T01:23:16.942Z,0.00
2023-05-20T01:24:16.914Z,0.00
2023-05-20T01:25:16.913Z,0.00
2023-05-20T01:26:16.888Z,0.00
2023-05-20T01:27:16.886Z,0.00
2023-05-20T01:28:16.893Z,0.00
2023-05-20T01:29:16.859Z,0.00
2023-05-20T01:30:16.855Z,0.00
2023-05-20T01:31:16.902Z,0.00
2023-05-20T01:32:16.848Z,0.00
2023-05-20T01:33:17.857Z,0.00
2023-05-20T01:34:16.830Z,0.00
2023-05-20T01:35:16.849Z,0.00
2023-05-20T01:36:17.582Z,0.00
2023-05-20T01:37:16.784Z,0.00
2023-05-20T01:38:16.813Z,0.00
2023-05-20T01:39:16.820Z,0.00
2023-05-20T01:40:16.813Z,0.00
2023-05-20T01:41:16.782Z,0.00
2023-05-20T01:42:16.781Z,0.00
2023-05-20T01:43:17.691Z,0.00
2023-05-20T01:44:17.750Z,0.00
2023-05-20T01:45:16.753Z,0.00
2023-05-20T01:46:16.848Z,0.00
2023-05-20T01:47:16.727Z,0.00
2023-05-20T01:48:16.720Z,0.00
2023-05-20T01:49:16.726Z,0.00
2023-05-20T01:50:16.770Z,0.00
2023-05-20T01:51:16.718Z,0.00
2023-05-20T01:52:16.698Z,0.00
2023-05-20T01:53:16.694Z,0.00
2023-05-20T01:54:16.663Z,0.00
2023-05-20T01:55:16.688Z,0.00
2023-05-20T01:56:16.677Z,0.00
2023-05-20T01:57:16.643Z,0.00
2023-05-20T01:58:16.628Z,0.00
2023-05-20T01:59:16.632Z,0.00
2023-05-20T02:00:16.616Z,0.00
2023-05-20T02:01:16.737Z,0.00
2023-05-20T02:02:16.695Z,0.00
2023-05-20T02:03:16.608Z,0.00
2023-05-20T02:04:16.569Z,0.00
2023-05-20T02:05:16.617Z,0.00
2023-05-20T02:06:16.594Z,0.00
2023-05-20T02:07:16.574Z,0.00
2023-05-20T02:08:16.570Z,0.00
2023-05-20T02:09:16.526Z,0.00
2023-05-20T02:10:16.537Z,0.00
2023-05-20T02:11:16.549Z,0.00
2023-05-20T02:12:16.586Z,0.00
2023-05-20T02:13:16.506Z,0.00
2023-05-20T02:14:16.551Z,0.00
2023-05-20T02:15:16.556Z,0.00
2023-05-20T02:16:16.562Z,0.00
2023-05-20T02:17:16.558Z,0.00
2023-05-20T02:18:16.566Z,0.00
2023-05-20T02:19:16.512Z,0.00
2023-05-20T02:20:16.499Z,0.00
2023-05-20T02:21:16.472Z,0.00
2023-05-20T02:22:16.435Z,0.00
2023-05-20T02:23:16.464Z,0.00
2023-05-20T02:24:16.434Z,0.00
2023-05-20T02:25:16.436Z,0.00
2023-05-20T02:26:16.429Z,0.00
2023-05-20T02:27:16.439Z,0.00
2023-05-20T02:28:16.399Z,0.00
2023-05-20T02:29:16.388Z,0.00
2023-05-20T02:30:16.383Z,0.00
2023-05-20T02:31:16.400Z,0.00
2023-05-20T02:32:16.392Z,0.00
2023-05-20T02:33:16.434Z,0.00
2023-05-20T02:34:16.354Z,0.00
2023-05-20T02:35:16.337Z,0.00
2023-05-20T02:36:16.319Z,0.00
2023-05-20T02:37:16.319Z,0.00
2023-05-20T02:38:16.316Z,0.00
2023-05-20T02:39:16.323Z,0.00
2023-05-20T02:40:17.294Z,0.00
2023-05-20T02:41:16.322Z,0.00
2023-05-20T02:42:16.311Z,0.00
2023-05-20T02:43:16.275Z,0.00
2023-05-20T02:44:16.277Z,0.00
2023-05-20T02:45:16.268Z,0.00
2023-05-20T02:46:16.330Z,0.00
2023-05-20T02:47:16.305Z,0.00
2023-05-20T02:48:17.096Z,0.00
2023-05-20T02:49:16.255Z,0.00
2023-05-20T02:50:16.248Z,0.00
2023-05-20T02:51:16.272Z,0.00
2023-05-20T02:52:16.232Z,0.00
2023-05-20T02:53:16.214Z,0.00
2023-05-20T02:54:16.199Z,0.00
2023-05-20T02:55:16.191Z,0.00
2023-05-20T02:56:16.177Z,0.00
2023-05-20T02:57:16.169Z,0.00
2023-05-20T02:58:16.171Z,0.00
2023-05-20T02:59:16.160Z,0.00
2023-05-20T03:00:16.192Z,0.00
2023-05-20T03:01:16.175Z,0.00
2023-05-20T03:02:16.144Z,0.00
2023-05-20T03:03:16.120Z,0.00
2023-05-20T03:04:16.145Z,0.00
2023-05-20T03:05:16.109Z,0.00
2023-05-20T03:06:16.114Z,0.00
2023-05-20T03:07:16.071Z,0.00
2023-05-20T03:08:16.063Z,0.00
2023-05-20T03:09:16.061Z,0.00
2023-05-20T03:10:16.058Z,0.00
2023-05-20T03:11:16.106Z,0.00
2023-05-20T03:12:16.042Z,0.00
2023-05-20T03:13:16.052Z,0.00
2023-05-20T03:14:16.043Z,0.00
2023-05-20T03:15:16.031Z,0.00
2023-05-20T03:16:16.070Z,0.00
2023-05-20T03:17:16.018Z,0.00
2023-05-20T03:18:17.013Z,0.00
2023-05-20T03:19:16.022Z,0.00
2023-05-20T03:20:15.997Z,0.00
2023-05-20T03:21:15.982Z,0.00
2023-05-20T03:22:15.964Z,0.00
2023-05-20T03:23:16.750Z,0.00
2023-05-20T03:24:15.952Z,0.00
2023-05-20T03:25:15.954Z,0.00
2023-05-20T03:26:15.920Z,0.00
2023-05-20T03:27:16.722Z,0.00
2023-05-20T03:28:15.942Z,0.00
2023-05-20T03:29:16.912Z,0.00
2023-05-20T03:30:15.920Z,0.00
2023-05-20T03:31:15.945Z,0.00
2023-05-20T03:32:15.953Z,0.00
2023-05-20T03:33:15.879Z,0.00
2023-05-20T03:34:15.867Z,0.00
2023-05-20T03:35:15.877Z,0.00
2023-05-20T03:36:16.879Z,0.00
2023-05-20T03:37:15.879Z,0.00
2023-05-20T03:38:15.863Z,0.00
2023-05-20T03:39:15.827Z,0.00
2023-05-20T03:40:15.814Z,0.00
2023-05-20T03:41:15.810Z,5.62
2023-05-20T03:42:15.833Z,5.62
2023-05-20T03:43:15.815Z,5.62
2023-05-20T03:44:15.792Z,5.62
2023-05-20T03:45:15.785Z,5.62
2023-05-20T03:46:15.812Z,5.62
2023-05-20T03:47:15.789Z,5.62
2023-05-20T04:03:00.251Z,11.25
2023-05-20T04:04:00.179Z,11.25
2023-05-20T04:05:00.096Z,11.25
2023-05-20T04:06:00.119Z,11.25
2023-05-20T04:07:00.049Z,11.25
2023-05-20T04:08:00.060Z,11.25
2023-05-20T04:09:00.047Z,11.25
2023-05-20T04:10:00.046Z,11.25
2023-05-20T04:11:00.057Z,11.25
2023-05-20T04:12:00.030Z,11.25
2023-05-20T04:13:00.005Z,11.25
2023-05-20T04:14:01.159Z,16.88
2023-05-20T04:15:01.164Z,16.88
2023-05-20T04:16:01.125Z,16.88
2023-05-20T04:17:01.234Z,16.88
2023-05-20T04:18:01.167Z,16.88
2023-05-20T04:19:01.160Z,22.50
2023-05-20T04:20:01.096Z,22.50
2023-05-20T04:21:01.099Z,22.50
2023-05-20T04:22:01.077Z,22.50
2023-05-20T04:23:01.076Z,22.50
2023-05-20T04:24:01.068Z,22.50
2023-05-20T04:25:01.060Z,22.50
2023-05-20T04:26:01.054Z,22.50
2023-05-20T04:27:01.024Z,22.50
2023-05-20T04:28:01.035Z,22.50
2023-05-20T04:29:01.017Z,22.50
2023-05-20T04:30:01.010Z,22.50
2023-05-20T04:31:02.718Z,22.50
2023-05-20T04:32:01.008Z,22.50
2023-05-20T04:33:01.023Z,22.50
2023-05-20T04:34:01.053Z,22.50
2023-05-20T04:35:00.998Z,28.12
2023-05-20T04:36:00.988Z,28.12
2023-05-20T04:37:00.996Z,22.50
2023-05-20T04:38:00.968Z,22.50
2023-05-20T04:39:00.972Z,22.50
2023-05-20T04:40:00.938Z,22.50
2023-05-20T04:41:00.914Z,22.50
2023-05-20T04:42:00.915Z,22.50
2023-05-20T04:43:01.858Z,22.50
2023-05-20T04:44:00.920Z,22.50
2023-05-20T04:45:00.895Z,22.50
2023-05-20T04:46:00.955Z,28.12
2023-05-20T04:47:00.884Z,28.12
2023-05-20T04:48:00.876Z,28.12
2023-05-20T04:49:00.922Z,28.12
2023-05-20T04:50:00.868Z,28.12
2023-05-20T04:51:00.866Z,28.12
2023-05-20T04:52:00.834Z,28.12
2023-05-20T04:53:00.847Z,28.12
2023-05-20T04:54:00.845Z,33.75
2023-05-20T04:55:00.835Z,33.75
2023-05-20T04:56:00.813Z,39.38
2023-05-20T04:57:00.807Z,39.38
2023-05-20T04:58:00.821Z,39.38
2023-05-20T04:59:00.788Z,39.38
2023-05-20T05:00:00.814Z,45.00
2023-05-20T05:01:00.758Z,45.00
2023-05-20T05:02:00.865Z,45.00
2023-05-20T05:03:00.766Z,45.00
2023-05-20T05:04:00.755Z,45.00
2023-05-20T05:05:00.838Z,45.00
2023-05-20T05:06:00.750Z,50.62
2023-05-20T05:07:01.745Z,50.62
2023-05-20T05:08:00.720Z,56.25
2023-05-20T05:09:00.717Z,56.25
2023-05-20T05:10:00.705Z,61.88
2023-05-20T05:11:00.764Z,61.88
2023-05-20T05:12:00.696Z,56.25
2023-05-20T05:13:00.696Z,61.88
2023-05-20T05:14:00.682Z,61.88
2023-05-20T05:15:00.723Z,56.25
2023-05-20T05:16:00.768Z,56.25
2023-05-20T05:17:00.707Z,50.62
2023-05-20T05:18:00.694Z,56.25
2023-05-20T05:19:00.676Z,56.25
2023-05-20T05:20:00.623Z,56.25
2023-05-20T05:21:00.636Z,50.62
2023-05-20T05:22:00.647Z,45.00
2023-05-20T05:23:00.622Z,45.00
2023-05-20T05:24:00.638Z,45.00
2023-05-20T05:25:00.603Z,39.38
2023-05-20T05:26:00.612Z,39.38
2023-05-20T05:27:00.584Z,39.38
2023-05-20T05:28:00.612Z,39.38
2023-05-20T05:29:00.595Z,45.00
2023-05-20T05:30:00.584Z,45.00
2023-05-20T05:31:00.547Z,45.00
2023-05-20T05:32:00.636Z,50.62
2023-05-20T05:33:00.679Z,50.62
2023-05-20T05:34:00.561Z,50.62
2023-05-20T05:35:00.530Z,50.62
2023-05-20T05:36:00.538Z,45.00
2023-05-20T05:37:00.542Z,45.00
2023-05-20T05:38:00.530Z,45.00
2023-05-20T05:39:00.537Z,45.00
2023-05-20T05:40:00.479Z,45.00
2023-05-20T05:41:00.602Z,50.62
2023-05-20T05:42:01.404Z,50.62
2023-05-20T05:43:01.410Z,50.62
2023-05-20T05:44:00.481Z,50.62
2023-05-20T05:45:00.486Z,50.62
2023-05-20T05:46:00.423Z,50.62
2023-05-20T05:47:00.458Z,50.62
2023-05-20T05:48:00.425Z,50.62
2023-05-20T05:49:00.409Z,50.62
2023-05-20T05:50:00.548Z,45.00
2023-05-20T05:51:00.409Z,45.00
2023-05-20T05:52:00.395Z,50.62
2023-05-20T05:53:00.375Z,50.62
2023-05-20T05:54:00.412Z,50.62
2023-05-20T05:55:00.370Z,50.62
2023-05-20T05:56:00.381Z,50.62
2023-05-20T05:57:02.592Z,56.25
2023-05-20T05:58:03.224Z,61.88
2023-05-20T05:59:04.155Z,61.88
2023-05-20T06:00:01.342Z,61.88
2023-05-20T06:01:00.401Z,67.50
2023-05-20T06:02:00.438Z,67.50
2023-05-20T06:03:00.457Z,67.50
2023-05-20T06:04:02.347Z,67.50
2023-05-20T06:05:00.296Z,67.50
2023-05-20T06:06:04.812Z,61.88
2023-05-20T06:07:02.275Z,61.88
2023-05-20T06:08:00.410Z,61.88
2023-05-20T06:09:00.329Z,61.88
2023-05-20T06:10:01.150Z,56.25
2023-05-20T06:11:00.252Z,56.25
2023-05-20T06:12:00.280Z,56.25
2023-05-20T06:13:00.221Z,50.62
2023-05-20T06:14:00.237Z,50.62
2023-05-20T06:15:00.262Z,50.62
2023-05-20T06:16:00.258Z,50.62
2023-05-20T06:17:01.719Z,50.62
2023-05-20T06:18:00.330Z,50.62
2023-05-20T06:19:08.697Z,50.62
2023-05-20T06:20:02.704Z,56.25
2023-05-20T06:21:00.223Z,61.88
2023-05-20T06:22:00.219Z,67.50
2023-05-20T06:23:00.227Z,67.50
2023-05-20T06:24:00.210Z,61.88
2023-05-20T06:25:00.860Z,61.88
2023-05-20T06:26:00.225Z,67.50
2023-05-20T06:27:00.151Z,73.12
2023-05-20T06:28:00.238Z,73.12
2023-05-20T06:29:00.137Z,78.75
2023-05-20T06:30:00.236Z,78.75
2023-05-20T06:31:00.151Z,78.75
2023-05-20T06:32:00.149Z,84.38
2023-05-20T06:33:00.175Z,84.38
2023-05-20T06:34:00.155Z,90.00
2023-05-20T06:35:00.878Z,90.00
2023-05-20T06:36:00.048Z,95.62
2023-05-20T06:37:00.052Z,106.88
2023-05-20T06:38:00.284Z,106.88
2023-05-20T06:39:00.033Z,106.88
2023-05-20T06:40:00.063Z,101.25
2023-05-20T06:41:02.870Z,101.25
2023-05-20T06:42:00.012Z,118.12
2023-05-20T06:43:00.009Z,129.38
2023-05-20T06:44:00.030Z,112.50
2023-05-20T06:44:59.982Z,123.75
2023-05-20T06:46:00.013Z,123.75
2023-05-20T06:46:59.975Z,123.75
2023-05-20T06:48:00.008Z,129.38
2023-05-20T06:48:59.956Z,129.38
2023-05-20T06:49:59.946Z,129.38
2023-05-20T06:50:59.921Z,135.00
2023-05-20T06:51:59.918Z,135.00
2023-05-20T06:52:59.926Z,129.38
2023-05-20T06:53:59.954Z,135.00
2023-05-20T06:54:59.908Z,140.62
2023-05-20T06:55:59.905Z,151.88
2023-05-20T06:56:59.910Z,163.12
2023-05-20T06:57:59.871Z,163.12
2023-05-20T06:58:59.869Z,157.50
2023-05-20T06:59:59.870Z,151.88
2023-05-20T07:00:59.862Z,157.50
2023-05-20T07:01:59.856Z,157.50
2023-05-20T07:02:59.887Z,163.12
2023-05-20T07:04:00.910Z,174.38
2023-05-20T07:04:59.814Z,168.75
2023-05-20T07:05:59.842Z,157.50
2023-05-20T07:06:59.812Z,151.88
2023-05-20T07:07:59.791Z,163.12
2023-05-20T07:08:59.846Z,174.38
2023-05-20T07:09:59.774Z,174.38
2023-05-20T07:10:59.847Z,191.25
2023-05-20T07:11:59.771Z,185.62
2023-05-20T07:12:59.791Z,185.62
2023-05-20T07:13:59.806Z,174.38
2023-05-20T07:14:59.742Z,168.75
2023-05-20T07:15:59.784Z,168.75
2023-05-20T07:16:59.782Z,174.38
2023-05-20T07:17:59.775Z,180.00
2023-05-20T07:18:59.734Z,174.38
2023-05-20T07:20:00.434Z,174.38
2023-05-20T07:20:59.684Z,168.75
2023-05-20T07:21:59.691Z,168.75
2023-05-20T07:22:59.808Z,174.38
2023-05-20T07:23:59.696Z,168.75
2023-05-20T07:24:59.656Z,163.12
2023-05-20T07:25:59.656Z,163.12
2023-05-20T07:26:59.904Z,163.12
2023-05-20T07:27:59.762Z,168.75
2023-05-20T07:28:59.636Z,174.38
2023-05-20T07:29:59.684Z,163.12
2023-05-20T07:30:59.646Z,157.50
2023-05-20T07:31:59.762Z,151.88
2023-05-20T07:32:59.692Z,157.50
2023-05-20T07:33:59.591Z,168.75
2023-05-20T07:34:59.616Z,163.12
2023-05-20T07:35:59.651Z,146.25
2023-05-20T07:36:59.627Z,140.62
2023-05-20T07:37:59.646Z,135.00
2023-05-20T07:39:03.593Z,123.75
2023-05-20T07:40:01.595Z,123.75
2023-05-20T07:41:00.358Z,123.75
2023-05-20T07:41:59.567Z,129.38
2023-05-20T07:42:59.591Z,135.00
2023-05-20T07:44:00.353Z,140.62
2023-05-20T07:44:59.573Z,140.62
2023-05-20T07:46:01.234Z,140.62
2023-05-20T07:47:00.625Z,140.62
2023-05-20T07:48:00.408Z,140.62
2023-05-20T07:48:59.520Z,140.62
2023-05-20T07:49:59.616Z,140.62
2023-05-20T07:50:59.466Z,135.00
2023-05-20T07:52:00.425Z,129.38
2023-05-20T07:52:59.492Z,140.62
2023-05-20T07:53:59.500Z,140.62
2023-05-20T07:54:59.480Z,140.62
2023-05-20T07:55:59.489Z,129.38
2023-05-20T07:56:59.442Z,123.75
2023-05-20T07:57:59.501Z,118.12
2023-05-20T07:58:59.533Z,112.50
2023-05-20T07:59:59.473Z,118.12
2023-05-20T08:00:59.431Z,123.75
2023-05-20T08:01:59.466Z,135.00
2023-05-20T08:02:59.489Z,146.25
2023-05-20T08:03:59.486Z,151.88
2023-05-20T08:04:59.468Z,157.50
2023-05-20T08:05:59.394Z,163.12
2023-05-20T08:06:59.389Z,163.12
2023-05-20T08:07:59.369Z,157.50
2023-05-20T08:08:59.495Z,146.25
2023-05-20T08:10:00.364Z,140.62
2023-05-20T08:10:59.353Z,135.00
2023-05-20T08:11:59.409Z,129.38
2023-05-20T08:12:59.322Z,129.38
2023-05-20T08:13:59.313Z,123.75
2023-05-20T08:14:59.308Z,123.75
2023-05-20T08:15:59.292Z,129.38
2023-05-20T08:17:00.355Z,135.00
2023-05-20T08:17:59.484Z,135.00
2023-05-20T08:18:59.349Z,129.38
2023-05-20T08:19:59.349Z,129.38
2023-05-20T08:20:59.305Z,129.38
2023-05-20T08:21:59.264Z,140.62
2023-05-20T08:23:02.665Z,146.25
2023-05-20T08:23:59.236Z,140.62
2023-05-20T08:24:59.233Z,135.00
2023-05-20T08:25:59.219Z,129.38
2023-05-20T08:26:59.234Z,123.75
2023-05-20T08:27:59.305Z,129.38
2023-05-20T08:29:05.873Z,129.38
2023-05-20T08:30:00.928Z,129.38
2023-05-20T08:31:00.884Z,135.00
2023-05-20T08:31:59.201Z,151.88
2023-05-20T08:32:59.207Z,163.12
2023-05-20T08:33:59.164Z,174.38
2023-05-20T08:34:59.157Z,180.00
2023-05-20T08:35:59.149Z,180.00
2023-05-20T08:36:59.127Z,185.62
2023-05-20T08:37:59.136Z,191.25
2023-05-20T08:38:59.127Z,196.88
2023-05-20T08:39:59.124Z,196.88
2023-05-20T08:40:59.107Z,191.25
2023-05-20T08:41:59.129Z,196.88
2023-05-20T08:43:00.104Z,213.75
2023-05-20T08:44:00.559Z,213.75
2023-05-20T08:45:05.177Z,208.12
2023-05-20T08:45:59.149Z,219.38
2023-05-20T08:46:59.249Z,225.00
2023-05-20T08:47:59.135Z,225.00
2023-05-20T08:48:59.967Z,236.25
2023-05-20T08:49:59.919Z,241.88
2023-05-20T08:50:59.453Z,258.75
2023-05-20T08:51:59.010Z,275.62
2023-05-20T08:52:59.010Z,281.25
2023-05-20T08:53:59.057Z,298.12
2023-05-20T08:54:59.445Z,343.12
2023-05-20T08:56:01.419Z,410.62
2023-05-20T08:56:59.974Z,427.50
2023-05-20T08:57:58.972Z,393.75
2023-05-20T08:58:58.969Z,376.88
2023-05-20T08:59:58.983Z,354.38
2023-05-20T09:00:59.067Z,354.38
2023-05-20T09:01:58.959Z,371.25
2023-05-20T09:03:01.000Z,365.62
2023-05-20T09:03:59.948Z,365.62
2023-05-20T09:04:58.981Z,365.62
2023-05-20T09:05:58.911Z,343.12
2023-05-20T09:06:58.913Z,331.88
2023-05-20T09:07:58.897Z,331.88
2023-05-20T09:08:58.922Z,326.25
2023-05-20T09:09:59.941Z,331.88
2023-05-20T09:10:58.924Z,315.00
2023-05-20T09:11:58.865Z,303.75
2023-05-20T09:12:58.859Z,326.25
2023-05-20T09:13:59.833Z,360.00
2023-05-20T09:14:58.842Z,365.62
2023-05-20T09:15:58.894Z,376.88
2023-05-20T09:16:58.881Z,371.25
2023-05-20T09:17:58.864Z,416.25
2023-05-20T09:18:58.802Z,455.62
2023-05-20T09:19:58.805Z,540.00
2023-05-20T09:20:58.789Z,534.38
2023-05-20T09:21:58.799Z,410.62
2023-05-20T09:22:58.740Z,376.88
2023-05-20T09:23:58.798Z,376.88
2023-05-20T09:24:58.779Z,365.62
2023-05-20T09:25:58.779Z,326.25
2023-05-20T09:26:58.791Z,315.00
2023-05-20T09:27:59.424Z,298.12
2023-05-20T09:28:58.761Z,281.25
2023-05-20T09:29:58.729Z,286.88
2023-05-20T09:30:58.698Z,281.25
2023-05-20T09:31:58.800Z,264.38
2023-05-20T09:32:58.785Z,241.88
2023-05-20T09:33:58.699Z,236.25
2023-05-20T09:34:58.706Z,247.50
2023-05-20T09:35:58.682Z,275.62
2023-05-20T09:36:58.765Z,286.88
2023-05-20T09:37:59.438Z,270.00
2023-05-20T09:38:58.674Z,270.00
2023-05-20T09:39:58.669Z,286.88
2023-05-20T09:40:58.619Z,298.12
2023-05-20T09:41:58.706Z,320.62
2023-05-20T09:42:58.732Z,298.12
2023-05-20T09:43:58.648Z,281.25
2023-05-20T09:44:58.629Z,270.00
2023-05-20T09:45:58.647Z,253.12
2023-05-20T09:46:58.615Z,247.50
2023-05-20T09:47:58.703Z,253.12
2023-05-20T09:48:59.389Z,241.88
2023-05-20T09:49:58.641Z,236.25
2023-05-20T09:50:58.570Z,230.62
2023-05-20T09:51:58.584Z,230.62
2023-05-20T09:52:58.529Z,219.38
2023-05-20T09:53:58.601Z,202.50
2023-05-20T09:55:00.258Z,202.50
2023-05-20T09:55:58.525Z,191.25
2023-05-20T09:56:58.514Z,196.88
2023-05-20T09:57:58.515Z,191.25
2023-05-20T09:58:58.455Z,191.25
2023-05-20T09:59:59.340Z,191.25
2023-05-20T10:00:58.512Z,180.00
2023-05-20T10:01:58.517Z,168.75
2023-05-20T10:02:58.515Z,163.12
2023-05-20T10:03:58.539Z,163.12
2023-05-20T10:04:58.484Z,163.12
2023-05-20T10:05:58.476Z,168.75
2023-05-20T10:06:58.487Z,180.00
2023-05-20T10:07:58.492Z,185.62
2023-05-20T10:08:59.474Z,185.62
2023-05-20T10:09:58.412Z,180.00
2023-05-20T10:10:58.452Z,180.00
2023-05-20T10:11:58.536Z,185.62
2023-05-20T10:12:58.413Z,185.62
2023-05-20T10:13:58.480Z,180.00
2023-05-20T10:14:58.932Z,180.00
2023-05-20T10:15:58.444Z,185.62
2023-05-20T10:16:58.333Z,191.25
2023-05-20T10:17:58.306Z,191.25
2023-05-20T10:18:58.366Z,191.25
2023-05-20T10:19:58.321Z,196.88
2023-05-20T10:20:58.314Z,196.88
2023-05-20T10:21:58.287Z,196.88
2023-05-20T10:22:58.269Z,196.88
2023-05-20T10:23:58.269Z,196.88
2023-05-20T10:24:58.282Z,202.50
2023-05-20T10:25:58.267Z,202.50
2023-05-20T10:26:58.296Z,202.50
2023-05-20T10:28:30.862Z,202.50
2023-05-20T10:28:58.829Z,202.50
2023-05-20T10:29:58.370Z,208.12
2023-05-20T10:30:58.217Z,202.50
2023-05-20T10:31:58.260Z,202.50
2023-05-20T10:32:58.456Z,202.50
2023-05-20T10:33:58.187Z,208.12
2023-05-20T10:34:58.173Z,208.12
2023-05-20T10:35:58.156Z,208.12
2023-05-20T10:36:58.171Z,208.12
2023-05-20T10:37:58.167Z,213.75
2023-05-20T10:38:58.192Z,219.38
2023-05-20T10:39:58.141Z,225.00
2023-05-20T10:40:58.138Z,236.25
2023-05-20T10:41:58.149Z,236.25
2023-05-20T10:42:58.835Z,236.25
2023-05-20T10:43:58.117Z,241.88
2023-05-20T10:44:58.112Z,258.75
2023-05-20T10:45:58.097Z,270.00
2023-05-20T10:47:20.517Z,270.00
2023-05-20T10:48:00.274Z,270.00
2023-05-20T10:48:58.225Z,286.88
2023-05-20T10:49:58.060Z,286.88
2023-05-20T10:50:58.114Z,286.88
2023-05-20T10:51:58.059Z,286.88
2023-05-20T10:52:58.057Z,286.88
2023-05-20T10:53:58.038Z,286.88
2023-05-20T10:54:58.032Z,281.25
2023-05-20T10:55:58.913Z,281.25
2023-05-20T10:56:58.011Z,281.25
2023-05-20T10:57:58.005Z,298.12
2023-05-20T10:58:58.005Z,298.12
2023-05-20T10:59:57.975Z,309.38
2023-05-20T11:00:58.041Z,315.00
2023-05-20T11:01:57.970Z,331.88
2023-05-20T11:02:58.000Z,348.75
2023-05-20T11:03:58.144Z,365.62
2023-05-20T11:04:57.986Z,365.62
2023-05-20T11:05:57.960Z,354.38
2023-05-20T11:06:58.018Z,343.12
2023-05-20T11:07:58.070Z,354.38
2023-05-20T11:08:57.944Z,376.88
2023-05-20T11:09:58.520Z,382.50
2023-05-20T11:10:58.004Z,354.38
2023-05-20T11:11:57.909Z,303.75
2023-05-20T11:12:57.929Z,286.88
2023-05-20T11:13:57.866Z,309.38
2023-05-20T11:14:58.742Z,292.50
2023-05-20T11:15:57.899Z,298.12
2023-05-20T11:16:57.904Z,320.62
2023-05-20T11:17:57.870Z,337.50
2023-05-20T11:18:57.919Z,365.62
2023-05-20T11:19:57.865Z,382.50
2023-05-20T11:20:57.842Z,405.00
2023-05-20T11:21:57.834Z,399.38
2023-05-20T11:22:57.809Z,399.38
2023-05-20T11:23:57.841Z,421.88
2023-05-20T11:24:57.843Z,360.00
2023-05-20T11:25:57.820Z,343.12
2023-05-20T11:26:57.852Z,399.38
2023-05-20T11:27:57.811Z,393.75
2023-05-20T11:28:59.286Z,376.88
2023-05-20T11:29:58.473Z,393.75
2023-05-20T11:30:57.782Z,399.38
2023-05-20T11:31:57.878Z,444.38
2023-05-20T11:32:57.849Z,450.00
2023-05-20T11:33:57.770Z,433.12
2023-05-20T11:34:58.462Z,455.62
2023-05-20T11:35:57.727Z,466.88
2023-05-20T11:36:57.808Z,433.12
2023-05-20T11:37:57.749Z,421.88
2023-05-20T11:38:57.720Z,433.12
2023-05-20T11:39:57.757Z,427.50
2023-05-20T11:40:58.727Z,433.12
2023-05-20T11:41:57.696Z,444.38
2023-05-20T11:42:57.699Z,421.88
2023-05-20T11:43:57.675Z,388.12
2023-05-20T11:44:58.871Z,371.25
2023-05-20T11:45:57.740Z,376.88
2023-05-20T11:46:57.660Z,388.12
2023-05-20T11:47:57.661Z,427.50
2023-05-20T11:48:57.637Z,466.88
2023-05-20T11:49:57.668Z,466.88
2023-05-20T11:50:58.460Z,455.62
2023-05-20T11:51:57.739Z,478.12
2023-05-20T11:52:57.602Z,517.50
2023-05-20T11:53:57.589Z,517.50
2023-05-20T11:54:57.646Z,528.75
2023-05-20T11:55:57.583Z,517.50
2023-05-20T11:56:57.570Z,511.88
2023-05-20T11:57:57.561Z,489.38
2023-05-20T11:58:57.568Z,466.88
2023-05-20T11:59:57.667Z,478.12
2023-05-20T12:01:09.107Z,489.38
2023-05-20T12:01:59.540Z,528.75
2023-05-20T12:02:57.590Z,528.75
2023-05-20T12:03:57.664Z,528.75
2023-05-20T12:04:57.724Z,511.88
2023-05-20T12:05:57.477Z,511.88
2023-05-20T12:06:57.482Z,545.62
2023-05-20T12:08:04.868Z,528.75
2023-05-20T12:08:57.474Z,489.38
2023-05-20T12:09:57.454Z,483.75
2023-05-20T12:10:58.438Z,500.62
2023-05-20T12:11:58.349Z,517.50
2023-05-20T12:12:57.421Z,511.88
2023-05-20T12:13:57.434Z,517.50
2023-05-20T12:14:57.438Z,534.38
2023-05-20T12:15:57.442Z,489.38
2023-05-20T12:16:57.392Z,416.25
2023-05-20T12:17:57.447Z,376.88
2023-05-20T12:18:57.462Z,376.88
2023-05-20T12:19:57.412Z,365.62
2023-05-20T12:20:57.363Z,354.38
2023-05-20T12:21:57.353Z,337.50
2023-05-20T12:22:57.357Z,320.62
2023-05-20T12:23:57.450Z,326.25
2023-05-20T12:24:58.008Z,337.50
2023-05-20T12:25:57.359Z,331.88
2023-05-20T12:26:57.333Z,309.38
2023-05-20T12:27:57.325Z,298.12
2023-05-20T12:28:57.372Z,303.75
2023-05-20T12:29:57.352Z,320.62
2023-05-20T12:30:57.345Z,331.88
2023-05-20T12:31:57.344Z,331.88
2023-05-20T12:32:57.370Z,354.38
2023-05-20T12:33:57.269Z,382.50
2023-05-20T12:34:57.305Z,371.25
2023-05-20T12:35:57.330Z,365.62
2023-05-20T12:36:57.283Z,371.25
2023-05-20T12:37:57.289Z,360.00
2023-05-20T12:38:57.224Z,348.75
2023-05-20T12:39:57.226Z,326.25
2023-05-20T12:40:57.194Z,303.75
2023-05-20T12:41:57.258Z,281.25
2023-05-20T12:42:57.257Z,247.50
2023-05-20T12:43:57.221Z,230.62
2023-05-20T12:44:57.170Z,241.88
2023-05-20T12:45:57.172Z,270.00
2023-05-20T12:46:57.174Z,303.75
2023-05-20T12:47:57.187Z,315.00
2023-05-20T12:48:57.146Z,343.12
2023-05-20T12:49:57.107Z,331.88
2023-05-20T12:50:57.131Z,326.25
2023-05-20T12:51:57.213Z,315.00
2023-05-20T12:52:57.133Z,331.88
2023-05-20T12:53:57.094Z,365.62
2023-05-20T12:54:57.086Z,376.88
2023-05-20T12:55:57.092Z,388.12
2023-05-20T12:56:57.097Z,393.75
2023-05-20T12:57:57.070Z,410.62
2023-05-20T12:58:57.059Z,438.75
2023-05-20T12:59:57.037Z,466.88
2023-05-20T13:00:57.035Z,478.12
2023-05-20T13:01:57.041Z,478.12